createdAt,value
2022-11-09T00:01:05.523Z,10.50
2022-11-09T00:03:32.361Z,10.50
2022-11-09T00:06:01.029Z,10.50
2022-11-09T00:08:28.573Z,10.50
2022-11-09T00:10:55.437Z,10.50
2022-11-09T00:13:22.865Z,10.50
2022-11-09T00:15:50.407Z,10.40
2022-11-09T00:18:17.261Z,10.50
2022-11-09T00:20:47.763Z,10.40
2022-11-09T00:23:16.410Z,10.40
2022-11-09T00:25:43.495Z,10.30
2022-11-09T00:28:10.351Z,10.40
2022-11-09T00:30:37.352Z,10.30
2022-11-09T00:33:04.353Z,10.30
2022-11-09T00:35:32.298Z,10.30
2022-11-09T00:37:59.400Z,10.30
2022-11-09T00:40:26.536Z,10.30
2022-11-09T00:42:53.371Z,10.30
2022-11-09T00:45:20.327Z,10.30
2022-11-09T00:47:47.154Z,10.30
2022-11-09T00:50:13.967Z,10.30
2022-11-09T00:52:40.786Z,10.30
2022-11-09T00:55:08.162Z,10.20
2022-11-09T00:57:34.970Z,10.20
2022-11-09T01:00:01.878Z,10.20
2022-11-09T01:02:28.669Z,10.30
2022-11-09T01:04:55.484Z,10.20
2022-11-09T01:07:22.302Z,10.20
2022-11-09T01:09:49.131Z,10.20
2022-11-09T01:12:15.940Z,10.20
2022-11-09T01:14:42.833Z,10.20
2022-11-09T01:17:09.613Z,10.20
2022-11-09T01:19:36.414Z,10.20
2022-11-09T01:22:03.196Z,10.20
2022-11-09T01:24:30.007Z,10.20
2022-11-09T01:26:58.193Z,10.20
2022-11-09T01:29:25.059Z,10.20
2022-11-09T01:31:55.200Z,10.20
2022-11-09T01:34:22.371Z,10.20
2022-11-09T01:36:52.425Z,10.20
2022-11-09T01:39:20.749Z,10.10
2022-11-09T01:41:48.959Z,10.10
2022-11-09T01:44:18.689Z,10.20
2022-11-09T01:46:51.503Z,10.10
2022-11-09T01:49:47.215Z,10.10
2022-11-09T01:52:21.868Z,10.00
2022-11-09T01:54:57.569Z,10.10
2022-11-09T01:57:44.954Z,10.00
2022-11-09T02:00:15.774Z,10.00
2022-11-09T02:03:05.141Z,10.00
2022-11-09T02:05:36.457Z,10.00
2022-11-09T02:08:10.543Z,9.90
2022-11-09T02:11:20.906Z,9.90
2022-11-09T02:13:57.249Z,9.90
2022-11-09T02:16:24.992Z,9.90
2022-11-09T02:18:58.058Z,9.80
2022-11-09T02:21:28.223Z,9.80
2022-11-09T02:23:55.919Z,9.80
2022-11-09T02:26:50.731Z,9.80
2022-11-09T02:29:36.349Z,9.80
2022-11-09T02:32:13.587Z,9.70
2022-11-09T02:34:40.652Z,9.70
2022-11-09T02:37:07.891Z,9.70
2022-11-09T02:39:36.039Z,9.60
2022-11-09T02:42:10.747Z,9.70
2022-11-09T02:44:49.228Z,9.60
2022-11-09T02:47:16.470Z,9.60
2022-11-09T02:49:43.581Z,9.60
2022-11-09T02:52:10.530Z,9.60
2022-11-09T02:54:37.878Z,9.60
2022-11-09T02:57:05.099Z,9.60
2022-11-09T02:59:32.290Z,9.60
2022-11-09T03:01:59.434Z,9.60
2022-11-09T03:04:26.486Z,9.50
2022-11-09T03:06:53.289Z,9.60
2022-11-09T03:09:20.511Z,9.60
2022-11-09T03:11:47.391Z,9.50
2022-11-09T03:14:14.684Z,9.50
2022-11-09T03:16:45.323Z,9.50
2022-11-09T03:19:14.768Z,9.60
2022-11-09T03:21:41.564Z,9.60
2022-11-09T03:24:08.855Z,9.50
2022-11-09T03:26:35.658Z,9.60
2022-11-09T03:29:02.522Z,9.60
2022-11-09T03:31:29.328Z,9.60
2022-11-09T03:33:56.124Z,9.60
2022-11-09T03:36:23.029Z,9.70
2022-11-09T03:38:49.819Z,9.60
2022-11-09T03:41:16.644Z,9.60
2022-11-09T03:43:43.458Z,9.60
2022-11-09T03:46:10.248Z,9.60
2022-11-09T03:48:37.082Z,9.60
2022-11-09T03:51:04.002Z,9.60
2022-11-09T03:53:30.770Z,9.60
2022-11-09T03:55:58.440Z,9.60
2022-11-09T03:58:25.279Z,9.60
2022-11-09T04:00:52.149Z,9.60
2022-11-09T04:03:19.463Z,9.60
2022-11-09T04:05:46.540Z,9.60
2022-11-09T04:08:13.424Z,9.60
2022-11-09T04:10:40.268Z,9.60
2022-11-09T04:13:07.156Z,9.60
2022-11-09T04:15:33.935Z,9.60
2022-11-09T04:18:03.482Z,9.60
2022-11-09T04:20:31.734Z,9.60
2022-11-09T04:23:03.279Z,9.60
2022-11-09T04:25:34.154Z,9.60
2022-11-09T04:28:02.170Z,9.60
2022-11-09T04:30:32.156Z,9.70
2022-11-09T04:33:01.006Z,9.70
2022-11-09T04:35:30.248Z,9.60
2022-11-09T04:38:00.845Z,9.60
2022-11-09T04:40:32.052Z,9.60
2022-11-09T04:43:04.748Z,9.60
2022-11-09T04:45:34.597Z,9.60
2022-11-09T04:48:04.392Z,9.60
2022-11-09T04:50:32.128Z,9.60
2022-11-09T04:53:15.378Z,9.60
2022-11-09T04:55:42.673Z,9.60
2022-11-09T04:58:09.940Z,9.60
2022-11-09T05:00:37.439Z,9.60
2022-11-09T05:03:06.967Z,9.60
2022-11-09T05:05:36.778Z,9.60
2022-11-09T05:08:08.353Z,9.60
2022-11-09T05:10:36.920Z,9.60
2022-11-09T05:13:10.789Z,9.50
2022-11-09T05:15:38.270Z,9.70
2022-11-09T05:18:06.611Z,9.50
2022-11-09T05:20:35.227Z,9.50
2022-11-09T05:23:21.783Z,9.60
2022-11-09T05:25:48.883Z,9.50
2022-11-09T05:28:15.853Z,9.50
2022-11-09T05:30:42.672Z,9.50
2022-11-09T05:33:09.642Z,9.50
2022-11-09T05:35:36.455Z,9.50
2022-11-09T05:38:03.371Z,9.50
2022-11-09T05:40:30.281Z,9.40
2022-11-09T05:42:57.134Z,9.40
2022-11-09T05:45:42.197Z,9.50
2022-11-09T05:48:11.503Z,9.40
2022-11-09T05:50:39.571Z,9.40
2022-11-09T05:53:06.646Z,9.50
2022-11-09T05:55:34.330Z,9.40
2022-11-09T05:58:01.215Z,9.40
2022-11-09T06:00:28.796Z,9.40
2022-11-09T06:03:06.906Z,9.40
2022-11-09T06:05:36.204Z,9.40
2022-11-09T06:08:13.019Z,9.40
2022-11-09T06:10:41.413Z,9.40
2022-11-09T06:13:08.572Z,9.40
2022-11-09T06:15:35.436Z,9.40
2022-11-09T06:18:02.266Z,9.40
2022-11-09T06:20:29.573Z,9.40
2022-11-09T06:23:03.477Z,9.40
2022-11-09T06:25:32.896Z,9.40
2022-11-09T06:28:00.441Z,9.40
2022-11-09T06:30:27.282Z,9.60
2022-11-09T06:33:02.928Z,9.50
2022-11-09T06:35:32.154Z,9.60
2022-11-09T06:38:00.736Z,9.60
2022-11-09T06:40:28.634Z,9.70
2022-11-09T06:43:00.446Z,9.70
2022-11-09T06:45:30.126Z,9.80
2022-11-09T06:48:02.975Z,10.00
2022-11-09T06:50:33.347Z,10.00
2022-11-09T06:53:07.063Z,10.10
2022-11-09T06:55:36.156Z,10.20
2022-11-09T06:58:09.975Z,10.40
2022-11-09T07:00:37.861Z,10.50
2022-11-09T07:03:04.990Z,10.60
2022-11-09T07:05:31.781Z,10.70
2022-11-09T07:07:58.794Z,10.90
2022-11-09T07:10:25.802Z,11.00
2022-11-09T07:12:52.637Z,11.20
2022-11-09T07:15:19.475Z,11.30
2022-11-09T07:17:46.406Z,11.40
2022-11-09T07:20:14.833Z,11.50
2022-11-09T07:22:42.188Z,11.60
2022-11-09T07:25:13.610Z,11.70
2022-11-09T07:27:41.530Z,11.80
2022-11-09T07:30:09.819Z,11.90
2022-11-09T07:33:07.449Z,11.90
2022-11-09T07:35:24.758Z,12.00
2022-11-09T07:37:51.606Z,12.10
2022-11-09T07:40:19.382Z,12.10
2022-11-09T07:42:46.341Z,12.20
2022-11-09T07:45:13.164Z,12.30
2022-11-09T07:47:40.019Z,12.30
2022-11-09T07:50:07.423Z,12.40
2022-11-09T07:52:34.238Z,12.40
2022-11-09T07:55:01.167Z,12.50
2022-11-09T07:57:28.050Z,12.60
2022-11-09T07:59:54.961Z,12.70
2022-11-09T08:02:21.895Z,12.80
2022-11-09T08:04:48.746Z,12.80
2022-11-09T08:07:15.644Z,12.90
2022-11-09T08:09:42.538Z,13.00
2022-11-09T08:12:09.452Z,13.10
2022-11-09T08:14:36.298Z,13.20
2022-11-09T08:17:03.296Z,13.30
2022-11-09T08:19:30.084Z,13.40
2022-11-09T08:21:57.890Z,13.50
2022-11-09T08:24:24.708Z,13.70
2022-11-09T08:26:51.532Z,13.90
2022-11-09T08:29:18.623Z,14.10
2022-11-09T08:31:45.475Z,14.40
2022-11-09T08:34:16.240Z,14.60
2022-11-09T08:36:43.487Z,14.80
2022-11-09T08:39:10.534Z,15.00
2022-11-09T08:41:37.825Z,15.10
2022-11-09T08:44:04.734Z,15.30
2022-11-09T08:46:31.572Z,15.40
2022-11-09T08:49:00.940Z,15.50
2022-11-09T08:51:27.961Z,15.60
2022-11-09T08:53:54.833Z,15.80
2022-11-09T08:56:22.279Z,16.00
2022-11-09T08:58:49.139Z,16.20
2022-11-09T09:01:17.409Z,16.30
2022-11-09T09:03:45.367Z,16.50
2022-11-09T09:06:12.355Z,16.50
2022-11-09T09:08:39.318Z,16.60
2022-11-09T09:11:06.857Z,16.60
2022-11-09T09:13:36.708Z,16.60
2022-11-09T09:16:15.510Z,16.60
2022-11-09T09:18:43.146Z,16.50
2022-11-09T09:21:10.977Z,16.40
2022-11-09T09:23:38.147Z,16.40
2022-11-09T09:26:05.456Z,16.40
2022-11-09T09:28:32.881Z,16.40
2022-11-09T09:31:00.969Z,16.40
2022-11-09T09:33:28.876Z,16.40
2022-11-09T09:35:57.992Z,16.40
2022-11-09T09:38:26.664Z,16.40
2022-11-09T09:41:06.103Z,16.50
2022-11-09T09:43:44.799Z,16.50
2022-11-09T09:46:35.017Z,16.60
2022-11-09T09:49:14.619Z,16.70
2022-11-09T09:51:52.255Z,16.80
2022-11-09T09:54:25.047Z,16.90
2022-11-09T09:56:59.472Z,17.00
2022-11-09T09:59:43.824Z,17.00
2022-11-09T10:02:28.612Z,17.10
2022-11-09T10:05:02.530Z,17.10
2022-11-09T10:07:44.666Z,17.20
2022-11-09T10:11:05.669Z,17.20
2022-11-09T10:14:11.875Z,17.30
2022-11-09T10:16:56.138Z,17.40
2022-11-09T10:20:13.350Z,17.50
2022-11-09T10:23:13.955Z,17.60
2022-11-09T10:29:13.915Z,17.90
2022-11-09T10:31:34.356Z,18.00
2022-11-09T10:34:16.674Z,18.00
2022-11-09T10:37:41.088Z,18.10
2022-11-09T10:40:18.924Z,18.20
2022-11-09T10:42:54.054Z,18.20
2022-11-09T10:45:27.455Z,18.20
2022-11-09T10:47:54.342Z,18.30
2022-11-09T10:50:39.032Z,18.40
2022-11-09T10:53:34.139Z,18.40
2022-11-09T10:56:21.775Z,18.40
2022-11-09T10:58:52.444Z,18.50
2022-11-09T11:01:36.650Z,18.50
2022-11-09T11:04:24.069Z,18.50
2022-11-09T11:06:50.934Z,18.50
2022-11-09T11:09:21.048Z,18.50
2022-11-09T11:11:48.452Z,18.60
2022-11-09T11:14:25.546Z,18.70
2022-11-09T11:16:53.443Z,18.90
2022-11-09T11:19:37.262Z,19.10
2022-11-09T11:22:14.247Z,19.30
2022-11-09T11:24:58.611Z,19.50
2022-11-09T11:27:50.431Z,19.70
2022-11-09T11:30:31.443Z,19.90
2022-11-09T11:32:59.031Z,20.10
2022-11-09T11:35:43.340Z,20.20
2022-11-09T11:38:27.380Z,20.40
2022-11-09T11:41:10.113Z,20.50
2022-11-09T11:43:42.818Z,20.50
2022-11-09T11:46:59.018Z,20.50
2022-11-09T11:49:46.667Z,20.50
2022-11-09T11:52:23.507Z,20.50
2022-11-09T11:55:19.456Z,20.40
2022-11-09T11:58:22.086Z,20.30
2022-11-09T12:01:51.570Z,20.30
2022-11-09T12:05:27.477Z,20.20
2022-11-09T12:08:37.579Z,20.20
2022-11-09T12:11:22.608Z,20.10
2022-11-09T12:14:13.406Z,20.10
2022-11-09T12:17:04.364Z,20.10
2022-11-09T12:19:35.831Z,20.10
2022-11-09T12:22:11.587Z,20.10
2022-11-09T12:25:02.563Z,20.20
2022-11-09T12:27:48.059Z,20.20
2022-11-09T12:30:21.450Z,20.30
2022-11-09T12:32:56.160Z,20.30
2022-11-09T12:35:36.654Z,20.40
2022-11-09T12:38:36.568Z,20.40
2022-11-09T12:41:16.872Z,20.50
2022-11-09T12:44:02.555Z,20.50
2022-11-09T12:46:52.381Z,20.60
2022-11-09T12:49:40.262Z,20.60
2022-11-09T12:52:12.779Z,20.60
2022-11-09T12:54:45.294Z,20.60
2022-11-09T12:57:27.037Z,20.60
2022-11-09T12:59:57.510Z,20.60
2022-11-09T13:02:39.072Z,20.60
2022-11-09T13:05:38.224Z,20.60
2022-11-09T13:08:08.632Z,20.70
2022-11-09T13:10:40.152Z,20.80
2022-11-09T13:13:14.983Z,20.80
2022-11-09T13:16:19.163Z,20.80
2022-11-09T13:18:51.421Z,20.80
2022-11-09T13:21:21.285Z,20.90
2022-11-09T13:24:02.308Z,20.90
2022-11-09T13:26:33.607Z,20.90
2022-11-09T13:29:21.140Z,21.00
2022-11-09T13:32:12.891Z,21.00
2022-11-09T13:34:58.611Z,21.10
2022-11-09T13:37:49.201Z,21.10
2022-11-09T13:40:31.175Z,21.20
2022-11-09T13:43:08.838Z,21.20
2022-11-09T13:45:46.138Z,21.30
2022-11-09T13:48:43.189Z,21.30
2022-11-09T13:51:35.592Z,21.30
2022-11-09T13:54:29.152Z,21.40
2022-11-09T13:56:57.660Z,21.40
2022-11-09T13:59:46.821Z,21.40
2022-11-09T14:02:25.341Z,21.40
2022-11-09T14:04:52.143Z,21.40
2022-11-09T14:07:35.060Z,21.40
2022-11-09T14:10:23.000Z,21.30
2022-11-09T14:13:17.775Z,21.30
2022-11-09T14:15:50.597Z,21.30
2022-11-09T14:18:37.637Z,21.30
2022-11-09T14:21:35.481Z,21.30
2022-11-09T14:24:28.947Z,21.30
2022-11-09T14:27:04.693Z,21.40
2022-11-09T14:29:33.232Z,21.30
2022-11-09T14:32:21.048Z,21.30
2022-11-09T14:34:47.922Z,21.20
2022-11-09T14:37:15.648Z,21.10
2022-11-09T14:39:44.271Z,21.00
2022-11-09T14:42:20.614Z,20.90
2022-11-09T14:44:48.798Z,20.80
2022-11-09T14:47:36.755Z,20.80
2022-11-09T14:50:04.770Z,20.60
2022-11-09T14:52:31.947Z,20.50
2022-11-09T14:54:59.353Z,20.40
2022-11-09T14:57:26.576Z,20.30
2022-11-09T14:59:55.367Z,20.20
2022-11-09T15:02:23.961Z,20.10
2022-11-09T15:04:59.877Z,20.00
2022-11-09T15:07:34.421Z,19.90
2022-11-09T15:10:07.183Z,19.80
2022-11-09T15:12:35.867Z,19.70
2022-11-09T15:15:07.468Z,19.60
2022-11-09T15:17:38.337Z,19.50
2022-11-09T15:20:31.683Z,19.40
2022-11-09T15:23:22.936Z,19.30
2022-11-09T15:25:50.474Z,19.20
2022-11-09T15:28:28.526Z,19.10
2022-11-09T15:30:55.256Z,19.00
2022-11-09T15:33:29.720Z,18.90
2022-11-09T15:35:59.754Z,18.80
2022-11-09T15:38:57.566Z,18.70
2022-11-09T15:41:26.149Z,18.70
2022-11-09T15:43:53.033Z,18.60
2022-11-09T15:46:32.188Z,18.50
2022-11-09T15:49:22.685Z,18.40
2022-11-09T15:51:50.014Z,18.30
2022-11-09T15:54:17.427Z,18.20
2022-11-09T15:56:44.418Z,18.20
2022-11-09T15:59:23.626Z,18.10
2022-11-09T16:01:50.740Z,18.00
2022-11-09T16:04:17.676Z,17.90
2022-11-09T16:06:46.807Z,17.80
2022-11-09T16:09:15.529Z,17.80
2022-11-09T16:11:42.533Z,17.70
2022-11-09T16:14:09.433Z,17.60
2022-11-09T16:16:36.381Z,17.50
2022-11-09T16:19:03.257Z,17.50
2022-11-09T16:21:30.099Z,17.40
2022-11-09T16:23:58.704Z,17.40
2022-11-09T16:26:26.078Z,17.30
2022-11-09T16:28:54.831Z,17.30
2022-11-09T16:31:41.190Z,17.20
2022-11-09T16:34:08.765Z,17.20
2022-11-09T16:36:38.235Z,17.10
2022-11-09T16:39:12.540Z,17.10
2022-11-09T16:41:41.925Z,17.10
2022-11-09T16:44:08.968Z,17.00
2022-11-09T16:46:35.703Z,16.90
2022-11-09T16:49:03.573Z,16.90
2022-11-09T16:51:31.007Z,16.80
2022-11-09T16:53:57.870Z,16.80
2022-11-09T16:56:25.549Z,16.70
2022-11-09T16:58:52.511Z,16.70
2022-11-09T17:01:23.312Z,16.70
2022-11-09T17:03:50.680Z,16.60
2022-11-09T17:06:17.620Z,16.60
2022-11-09T17:08:44.911Z,16.60
2022-11-09T17:11:15.425Z,16.60
2022-11-09T17:13:42.422Z,16.50
2022-11-09T17:16:13.034Z,16.50
2022-11-09T17:18:40.596Z,16.50
2022-11-09T17:21:14.573Z,16.40
2022-11-09T17:23:42.820Z,16.40
2022-11-09T17:26:10.861Z,16.40
2022-11-09T17:28:42.758Z,16.30
2022-11-09T17:31:20.498Z,16.30
2022-11-09T17:33:47.338Z,16.30
2022-11-09T17:36:25.955Z,16.20
2022-11-09T17:39:05.608Z,16.20
2022-11-09T17:41:32.565Z,16.30
2022-11-09T17:44:02.575Z,16.30
2022-11-09T17:46:29.396Z,16.20
2022-11-09T17:48:56.263Z,16.20
2022-11-09T17:51:23.674Z,16.20
2022-11-09T17:53:50.616Z,16.10
2022-11-09T17:56:17.492Z,16.20
2022-11-09T17:58:46.252Z,16.10
2022-11-09T18:01:18.674Z,16.20
2022-11-09T18:03:45.903Z,16.20
2022-11-09T18:06:22.740Z,16.20
2022-11-09T18:09:19.383Z,16.20
2022-11-09T18:11:39.933Z,16.20
2022-11-09T18:14:07.061Z,16.20
2022-11-09T18:16:33.880Z,16.20
2022-11-09T18:19:02.851Z,16.20
2022-11-09T18:21:29.773Z,16.30
2022-11-09T18:23:57.081Z,16.30
2022-11-09T18:26:23.943Z,16.30
2022-11-09T18:28:50.992Z,16.30
2022-11-09T18:31:17.846Z,16.30
2022-11-09T18:33:44.834Z,16.30
2022-11-09T18:36:18.658Z,16.20
2022-11-09T18:38:45.709Z,16.30
2022-11-09T18:41:20.543Z,16.20
2022-11-09T18:43:49.023Z,16.20
2022-11-09T18:46:19.013Z,16.20
2022-11-09T18:48:50.503Z,16.10
2022-11-09T18:51:18.206Z,16.10
2022-11-09T18:53:47.186Z,16.10
2022-11-09T18:56:23.380Z,16.10
2022-11-09T18:58:55.870Z,16.00
2022-11-09T19:01:26.842Z,16.10
2022-11-09T19:03:59.757Z,16.00
2022-11-09T19:06:27.484Z,16.00
2022-11-09T19:09:13.067Z,16.00
2022-11-09T19:11:39.961Z,16.00
2022-11-09T19:14:06.865Z,16.00
2022-11-09T19:16:33.717Z,16.00
2022-11-09T19:19:00.550Z,16.00
2022-11-09T19:21:42.577Z,15.90
2022-11-09T19:24:14.154Z,15.90
2022-11-09T19:26:41.484Z,15.90
2022-11-09T19:29:10.596Z,15.90
2022-11-09T19:31:41.469Z,15.90
2022-11-09T19:34:08.405Z,15.90
2022-11-09T19:36:35.347Z,15.90
2022-11-09T19:39:02.251Z,15.80
2022-11-09T19:41:29.368Z,15.80
2022-11-09T19:44:00.713Z,15.80
2022-11-09T19:46:33.721Z,15.70
2022-11-09T19:49:01.391Z,15.70
2022-11-09T19:51:31.688Z,15.60
2022-11-09T19:54:00.692Z,15.60
2022-11-09T19:56:31.571Z,15.60
2022-11-09T19:59:00.761Z,15.50
2022-11-09T20:01:28.662Z,15.50
2022-11-09T20:03:58.547Z,15.50
2022-11-09T20:06:26.496Z,15.40
2022-11-09T20:08:53.951Z,15.50
2022-11-09T20:11:43.493Z,15.40
2022-11-09T20:14:11.693Z,15.40
2022-11-09T20:16:40.363Z,15.40
2022-11-09T20:19:11.837Z,15.30
2022-11-09T20:21:40.198Z,15.30
2022-11-09T20:24:08.554Z,15.30
2022-11-09T20:26:35.482Z,15.20
2022-11-09T20:29:02.318Z,15.20
2022-11-09T20:31:29.202Z,15.20
2022-11-09T20:33:56.900Z,15.20
2022-11-09T20:36:23.731Z,15.10
2022-11-09T20:38:50.889Z,15.10
2022-11-09T20:41:21.648Z,15.10
2022-11-09T20:43:49.820Z,15.10
2022-11-09T20:46:20.209Z,15.10
2022-11-09T20:48:53.968Z,15.00
2022-11-09T20:51:22.976Z,15.00
2022-11-09T20:53:50.798Z,15.00
2022-11-09T20:56:19.476Z,15.00
2022-11-09T20:58:47.154Z,14.90
2022-11-09T21:01:19.216Z,14.90
2022-11-09T21:03:47.762Z,14.90
2022-11-09T21:06:15.357Z,14.90
2022-11-09T21:08:54.422Z,14.80
2022-11-09T21:11:23.816Z,14.80
2022-11-09T21:13:52.124Z,14.80
2022-11-09T21:16:21.629Z,14.80
2022-11-09T21:18:49.034Z,14.70
2022-11-09T21:21:22.413Z,14.70
2022-11-09T21:24:08.620Z,14.50
2022-11-09T21:26:54.160Z,14.70
2022-11-09T21:29:42.987Z,14.60
2022-11-09T21:32:12.139Z,14.60
2022-11-09T21:34:39.509Z,14.60
2022-11-09T21:37:06.781Z,14.60
2022-11-09T21:39:34.502Z,14.50
2022-11-09T21:42:02.959Z,14.60
2022-11-09T21:44:32.410Z,14.50
2022-11-09T21:47:00.025Z,14.50
2022-11-09T21:49:28.345Z,14.50
2022-11-09T21:51:55.516Z,14.50
2022-11-09T21:54:23.720Z,14.50
2022-11-09T21:56:52.242Z,14.40
2022-11-09T21:59:19.448Z,14.40
2022-11-09T22:01:46.455Z,14.40
2022-11-09T22:04:13.802Z,14.40
2022-11-09T22:06:43.237Z,14.40
2022-11-09T22:09:16.997Z,14.30
2022-11-09T22:12:03.190Z,14.30
2022-11-09T22:14:48.726Z,14.20
2022-11-09T22:17:15.796Z,14.30
2022-11-09T22:20:01.635Z,14.20
2022-11-09T22:22:30.748Z,14.10
2022-11-09T22:24:57.810Z,14.10
2022-11-09T22:27:24.845Z,14.10
2022-11-09T22:29:51.673Z,14.00
2022-11-09T22:32:18.706Z,14.00
2022-11-09T22:34:45.729Z,14.00
2022-11-09T22:37:12.620Z,13.90
2022-11-09T22:39:43.073Z,13.90
2022-11-09T22:42:13.917Z,13.90
2022-11-09T22:44:40.727Z,13.90
2022-11-09T22:47:07.604Z,13.90
2022-11-09T22:49:36.566Z,13.80
2022-11-09T22:52:04.973Z,13.80
2022-11-09T22:54:31.987Z,13.80
2022-11-09T22:56:58.886Z,13.70
2022-11-09T22:59:25.729Z,13.70
2022-11-09T23:01:52.548Z,13.70
2022-11-09T23:04:19.376Z,13.70
2022-11-09T23:06:46.285Z,13.70
2022-11-09T23:09:13.553Z,13.70
2022-11-09T23:11:41.186Z,13.70
2022-11-09T23:14:43.237Z,13.70
2022-11-09T23:17:30.011Z,13.70
2022-11-09T23:19:56.856Z,13.60
2022-11-09T23:22:23.621Z,13.60
2022-11-09T23:25:09.080Z,13.60
2022-11-09T23:27:35.859Z,13.60
2022-11-09T23:30:02.747Z,13.60
2022-11-09T23:32:29.569Z,13.60
2022-11-09T23:34:56.330Z,13.60
2022-11-09T23:37:23.107Z,13.60
2022-11-09T23:39:49.877Z,13.60
2022-11-09T23:42:16.677Z,13.60
2022-11-09T23:44:43.468Z,13.60
2022-11-09T23:47:10.232Z,13.60
2022-11-09T23:49:37.053Z,13.60
2022-11-09T23:52:04.063Z,13.60
2022-11-09T23:54:30.941Z,13.60
2022-11-09T23:56:57.752Z,13.60
2022-11-09T23:59:24.511Z,13.60
